Guadalupe — WDG4440 — position and weather

sailwx.info

Track history (hours):
 
Tides and Currents Weather Stations Pressure Air Temp Water Temp Dewpoint Dewpoint Depression Visibility Wind Speed Wind Dir Waves Ship Positions

Guadalupe

Owner: Higman Barge Lines., Inc, Orange, TX. More information available from US FCC via Universal Licensing System and Coast Guard Vessel Documentation Center.

Last reported at 2018-Feb-20 01:29 UTC. Time now 2018-Feb-20 01:52 UTC.
Position N 29°49' W 093°59'.

Length 26 m; draft 3 m.

Type: Towing. MMSI: 367536590.

Date/timePositionNaut miles runAvg speedWind from/ knotsBaromVisibWave heightAir tempDewpointWater temp
2018-Feb-20 01:29N 29°49' W 093°59'0 0.1
2018-Feb-20 00:59N 29°49' W 093°59'0 0.1
2018-Feb-20 00:29N 29°49' W 093°59'0 0.1
2018-Feb-19 23:59N 29°49' W 093°59'1 1.1
2018-Feb-19 23:30N 29°49' W 093°60'2 3.9
2018-Feb-19 23:00N 29°47' W 094°01'2 4.3
2018-Feb-19 22:30N 29°46' W 094°03'2 4.0
2018-Feb-19 22:00N 29°45' W 094°05'2 4.7
2018-Feb-19 21:30N 29°43' W 094°07'2 4.2
2018-Feb-19 20:59N 29°42' W 094°09'2 4.4
2018-Feb-19 20:30N 29°41' W 094°11'2 4.1
2018-Feb-19 20:00N 29°40' W 094°13'2 4.6
2018-Feb-19 19:30N 29°39' W 094°16'2 4.7
2018-Feb-19 19:00N 29°38' W 094°18'2 3.8
2018-Feb-19 18:29N 29°37' W 094°20'2 3.1
2018-Feb-19 17:59N 29°36' W 094°22'2 3.1
2018-Feb-19 17:30N 29°36' W 094°23'2 2.4
2018-Feb-19 16:50N 29°35' W 094°25'1 2.8
2018-Feb-19 16:30N 29°34' W 094°25'1 2.9
2018-Feb-19 16:00N 29°34' W 094°27'2 3.1
2018-Feb-19 15:29N 29°33' W 094°28'1 3.1
2018-Feb-19 15:00N 29°31' W 094°29'2 3.9
2018-Feb-19 14:30N 29°31' W 094°31'2 3.0
2018-Feb-19 13:55N 29°30' W 094°33'0 0.3
2018-Feb-19 13:29N 29°30' W 094°33'2 3.1
2018-Feb-19 12:59N 29°29' W 094°35'1 1.4
2018-Feb-19 12:19N 29°29' W 094°36'0 0.0
2018-Feb-19 10:25N 29°29' W 094°36'0 0.0
2018-Feb-19 09:58N 29°29' W 094°36'0 0.0
2018-Feb-19 09:13N 29°29' W 094°36'0 0.0
2018-Feb-19 08:58N 29°29' W 094°36'0 0.0
2018-Feb-19 08:22N 29°29' W 094°36'0 0.0
2018-Feb-19 07:58N 29°29' W 094°36'0 0.0
2018-Feb-19 07:28N 29°29' W 094°36'0 0.0
2018-Feb-19 06:55N 29°29' W 094°36'0 0.0
2018-Feb-19 06:28N 29°29' W 094°36'0 0.0
2018-Feb-19 05:58N 29°29' W 094°36'0 0.0
2018-Feb-19 05:28N 29°29' W 094°36'0 0.0
2018-Feb-19 04:52N 29°29' W 094°36'0 0.0
2018-Feb-19 04:25N 29°29' W 094°36'0 0.0
2018-Feb-18 07:58N 29°29' W 094°36'0 0.0
2018-Feb-17 23:39N 29°29' W 094°36'2 2.6
2018-Feb-17 22:42N 29°28' W 094°39'11 2.7
2018-Feb-17 18:41N 29°28' W 094°51'2 8.6
2018-Feb-17 18:28N 29°30' W 094°52'3 7.5
2018-Feb-17 18:00N 29°32' W 094°54'3 6.6
2018-Feb-17 17:31N 29°35' W 094°56'3 6.0
2018-Feb-17 17:00N 29°38' W 094°58'3 6.7
2018-Feb-17 16:30N 29°41' W 094°59'5 5.5
2018-Feb-17 15:35N 29°44' W 095°04'3 0.1
2018-Feb-16 18:47N 29°47' W 095°05'0 0.0
2018-Feb-16 18:29N 29°47' W 095°05'0 0.0
2018-Feb-16 17:56N 29°47' W 095°05'0 0.0
2018-Feb-16 17:26N 29°47' W 095°05'0 0.0
2018-Feb-16 16:59N 29°47' W 095°05'0 0.0
2018-Feb-16 16:23N 29°47' W 095°05'0 0.0
2018-Feb-16 15:59N 29°47' W 095°05'0 0.0
2018-Feb-16 15:26N 29°47' W 095°05'0 0.0
2018-Feb-16 14:57N 29°47' W 095°05'0 0.0
2018-Feb-16 14:21N 29°47' W 095°05'0 0.0
2018-Feb-16 14:00N 29°47' W 095°05'0 0.0
2018-Feb-16 07:51N 29°47' W 095°05'0 0.0
2018-Feb-16 07:30N 29°47' W 095°05'0 0.0
2018-Feb-16 07:00N 29°47' W 095°05'0 0.0
2018-Feb-16 05:18N 29°47' W 095°05'0 0.0
2018-Feb-16 04:12N 29°47' W 095°05'0 0.0
2018-Feb-16 02:30N 29°47' W 095°05'0 0.0
2018-Feb-15 09:45N 29°47' W 095°05'0 0.0
2018-Feb-15 09:21N 29°47' W 095°05'0 0.0
2018-Feb-15 08:48N 29°47' W 095°05'0 0.0
2018-Feb-15 07:51N 29°47' W 095°05'0 0.0
2018-Feb-15 07:09N 29°47' W 095°05'0 0.0
2018-Feb-15 06:54N 29°47' W 095°05'0 0.0
2018-Feb-15 06:24N 29°47' W 095°05'0 0.0
2018-Feb-15 05:21N 29°47' W 095°05'0 0.0
2018-Feb-15 04:51N 29°47' W 095°05'0 0.0
2018-Feb-15 04:15N 29°47' W 095°05'0 0.0
2018-Feb-15 03:54N 29°47' W 095°05'2 0.2
2018-Feb-14 14:26N 29°45' W 095°06'9 0.2
2018-Feb-12 23:26N 29°37' W 095°02'0 0.0
2018-Feb-12 22:59N 29°37' W 095°02'0 0.0
2018-Feb-12 22:29N 29°37' W 095°02'0 0.0
2018-Feb-12 21:59N 29°37' W 095°02'0 0.0
2018-Feb-12 21:29N 29°37' W 095°02'0 0.0
2018-Feb-12 20:53N 29°37' W 095°02'0 0.0
2018-Feb-12 20:29N 29°37' W 095°02'0 0.0
2018-Feb-12 19:47N 29°37' W 095°02'0 0.0
2018-Feb-12 19:29N 29°37' W 095°02'0 0.0
2018-Feb-12 18:59N 29°37' W 095°02'0 0.0
2018-Feb-12 18:29N 29°37' W 095°02'0 0.0
2018-Feb-12 17:53N 29°37' W 095°02'0 0.1
2018-Feb-12 17:24N 29°37' W 095°01'0 0.1
2018-Feb-12 16:59N 29°37' W 095°01'0 0.0
2018-Feb-12 10:13N 29°37' W 095°02'0 0.0
2018-Feb-12 09:58N 29°37' W 095°02'0 0.0
2018-Feb-12 09:28N 29°37' W 095°02'0 0.0
2018-Feb-12 08:58N 29°37' W 095°02'0 0.0
2018-Feb-12 08:28N 29°37' W 095°02'0 0.0
2018-Feb-12 07:58N 29°37' W 095°02'0 0.0
2018-Feb-12 07:28N 29°37' W 095°02'0 0.0
2018-Feb-12 06:58N 29°37' W 095°02'0 0.0
2018-Feb-12 06:28N 29°37' W 095°02'0 0.0
2018-Feb-12 05:55N 29°37' W 095°02'0 0.0
2018-Feb-12 05:28N 29°37' W 095°02'0 0.0
2018-Feb-12 04:58N 29°37' W 095°02'0 0.0
2018-Feb-12 04:30N 29°37' W 095°02'0 0.1
2018-Feb-12 03:58N 29°37' W 095°01'0 0.0
2018-Feb-12 03:31N 29°37' W 095°01'0 0.0
2018-Feb-12 02:58N 29°37' W 095°01'0 0.0
2018-Feb-12 02:31N 29°37' W 095°01'0 0.3
2018-Feb-12 02:00N 29°37' W 095°01'2 4.8
2018-Feb-12 01:30N 29°37' W 094°59'1 1.3
2018-Feb-12 01:00N 29°37' W 094°58'2 4.5
2018-Feb-12 00:28N 29°39' W 094°58'3 5.5
2018-Feb-11 23:59N 29°42' W 094°60'  
Track history (hours):
 
Tides and Currents Weather Stations Pressure Air Temp Water Temp Dewpoint Dewpoint Depression Visibility Wind Speed Wind Dir Waves Ship Positions

Guadalupe

Owner: Higman Barge Lines., Inc, Orange, TX. More information available from US FCC via Universal Licensing System and Coast Guard Vessel Documentation Center.

Last reported at 2018-Feb-20 01:29 UTC. Time now 2018-Feb-20 01:52 UTC.
Position N 29°49' W 093°59'.

Length 26 m; draft 3 m.

Type: Towing. MMSI: 367536590.

Date/timePositionNaut miles runAvg speedWind from/ knotsBaromVisibWave heightAir tempDewpointWater temp
2018-Feb-20 01:29N 29°49' W 093°59'0 0.1
2018-Feb-20 00:59N 29°49' W 093°59'0 0.1
2018-Feb-20 00:29N 29°49' W 093°59'0 0.1
2018-Feb-19 23:59N 29°49' W 093°59'1 1.1
2018-Feb-19 23:30N 29°49' W 093°60'2 3.9
2018-Feb-19 23:00N 29°47' W 094°01'2 4.3
2018-Feb-19 22:30N 29°46' W 094°03'2 4.0
2018-Feb-19 22:00N 29°45' W 094°05'2 4.7
2018-Feb-19 21:30N 29°43' W 094°07'2 4.2
2018-Feb-19 20:59N 29°42' W 094°09'2 4.4
2018-Feb-19 20:30N 29°41' W 094°11'2 4.1
2018-Feb-19 20:00N 29°40' W 094°13'2 4.6
2018-Feb-19 19:30N 29°39' W 094°16'2 4.7
2018-Feb-19 19:00N 29°38' W 094°18'2 3.8
2018-Feb-19 18:29N 29°37' W 094°20'2 3.1
2018-Feb-19 17:59N 29°36' W 094°22'2 3.1
2018-Feb-19 17:30N 29°36' W 094°23'2 2.4
2018-Feb-19 16:50N 29°35' W 094°25'1 2.8
2018-Feb-19 16:30N 29°34' W 094°25'1 2.9
2018-Feb-19 16:00N 29°34' W 094°27'2 3.1
2018-Feb-19 15:29N 29°33' W 094°28'1 3.1
2018-Feb-19 15:00N 29°31' W 094°29'2 3.9
2018-Feb-19 14:30N 29°31' W 094°31'2 3.0
2018-Feb-19 13:55N 29°30' W 094°33'0 0.3
2018-Feb-19 13:29N 29°30' W 094°33'2 3.1
2018-Feb-19 12:59N 29°29' W 094°35'1 1.4
2018-Feb-19 12:19N 29°29' W 094°36'0 0.0
2018-Feb-19 10:25N 29°29' W 094°36'0 0.0
2018-Feb-19 09:58N 29°29' W 094°36'0 0.0
2018-Feb-19 09:13N 29°29' W 094°36'0 0.0
2018-Feb-19 08:58N 29°29' W 094°36'0 0.0
2018-Feb-19 08:22N 29°29' W 094°36'0 0.0
2018-Feb-19 07:58N 29°29' W 094°36'0 0.0
2018-Feb-19 07:28N 29°29' W 094°36'0 0.0
2018-Feb-19 06:55N 29°29' W 094°36'0 0.0
2018-Feb-19 06:28N 29°29' W 094°36'0 0.0
2018-Feb-19 05:58N 29°29' W 094°36'0 0.0
2018-Feb-19 05:28N 29°29' W 094°36'0 0.0
2018-Feb-19 04:52N 29°29' W 094°36'0 0.0
2018-Feb-19 04:25N 29°29' W 094°36'0 0.0
2018-Feb-18 07:58N 29°29' W 094°36'0 0.0
2018-Feb-17 23:39N 29°29' W 094°36'2 2.6
2018-Feb-17 22:42N 29°28' W 094°39'11 2.7
2018-Feb-17 18:41N 29°28' W 094°51'2 8.6
2018-Feb-17 18:28N 29°30' W 094°52'3 7.5
2018-Feb-17 18:00N 29°32' W 094°54'3 6.6
2018-Feb-17 17:31N 29°35' W 094°56'3 6.0
2018-Feb-17 17:00N 29°38' W 094°58'3 6.7
2018-Feb-17 16:30N 29°41' W 094°59'5 5.5
2018-Feb-17 15:35N 29°44' W 095°04'3 0.1
2018-Feb-16 18:47N 29°47' W 095°05'0 0.0
2018-Feb-16 18:29N 29°47' W 095°05'0 0.0
2018-Feb-16 17:56N 29°47' W 095°05'0 0.0
2018-Feb-16 17:26N 29°47' W 095°05'0 0.0
2018-Feb-16 16:59N 29°47' W 095°05'0 0.0
2018-Feb-16 16:23N 29°47' W 095°05'0 0.0
2018-Feb-16 15:59N 29°47' W 095°05'0 0.0
2018-Feb-16 15:26N 29°47' W 095°05'0 0.0
2018-Feb-16 14:57N 29°47' W 095°05'0 0.0
2018-Feb-16 14:21N 29°47' W 095°05'0 0.0
2018-Feb-16 14:00N 29°47' W 095°05'0 0.0
2018-Feb-16 07:51N 29°47' W 095°05'0 0.0
2018-Feb-16 07:30N 29°47' W 095°05'0 0.0
2018-Feb-16 07:00N 29°47' W 095°05'0 0.0
2018-Feb-16 05:18N 29°47' W 095°05'0 0.0
2018-Feb-16 04:12N 29°47' W 095°05'0 0.0
2018-Feb-16 02:30N 29°47' W 095°05'0 0.0
2018-Feb-15 09:45N 29°47' W 095°05'0 0.0
2018-Feb-15 09:21N 29°47' W 095°05'0 0.0
2018-Feb-15 08:48N 29°47' W 095°05'0 0.0
2018-Feb-15 07:51N 29°47' W 095°05'0 0.0
2018-Feb-15 07:09N 29°47' W 095°05'0 0.0
2018-Feb-15 06:54N 29°47' W 095°05'0 0.0
2018-Feb-15 06:24N 29°47' W 095°05'0 0.0
2018-Feb-15 05:21N 29°47' W 095°05'0 0.0
2018-Feb-15 04:51N 29°47' W 095°05'0 0.0
2018-Feb-15 04:15N 29°47' W 095°05'0 0.0
2018-Feb-15 03:54N 29°47' W 095°05'2 0.2
2018-Feb-14 14:26N 29°45' W 095°06'9 0.2
2018-Feb-12 23:26N 29°37' W 095°02'0 0.0
2018-Feb-12 22:59N 29°37' W 095°02'0 0.0
2018-Feb-12 22:29N 29°37' W 095°02'0 0.0
2018-Feb-12 21:59N 29°37' W 095°02'0 0.0
2018-Feb-12 21:29N 29°37' W 095°02'0 0.0
2018-Feb-12 20:53N 29°37' W 095°02'0 0.0
2018-Feb-12 20:29N 29°37' W 095°02'0 0.0
2018-Feb-12 19:47N 29°37' W 095°02'0 0.0
2018-Feb-12 19:29N 29°37' W 095°02'0 0.0
2018-Feb-12 18:59N 29°37' W 095°02'0 0.0
2018-Feb-12 18:29N 29°37' W 095°02'0 0.0
2018-Feb-12 17:53N 29°37' W 095°02'0 0.1
2018-Feb-12 17:24N 29°37' W 095°01'0 0.1
2018-Feb-12 16:59N 29°37' W 095°01'0 0.0
2018-Feb-12 10:13N 29°37' W 095°02'0 0.0
2018-Feb-12 09:58N 29°37' W 095°02'0 0.0
2018-Feb-12 09:28N 29°37' W 095°02'0 0.0
2018-Feb-12 08:58N 29°37' W 095°02'0 0.0
2018-Feb-12 08:28N 29°37' W 095°02'0 0.0
2018-Feb-12 07:58N 29°37' W 095°02'0 0.0
2018-Feb-12 07:28N 29°37' W 095°02'0 0.0
2018-Feb-12 06:58N 29°37' W 095°02'0 0.0
2018-Feb-12 06:28N 29°37' W 095°02'0 0.0
2018-Feb-12 05:55N 29°37' W 095°02'0 0.0
2018-Feb-12 05:28N 29°37' W 095°02'0 0.0
2018-Feb-12 04:58N 29°37' W 095°02'0 0.0
2018-Feb-12 04:30N 29°37' W 095°02'0 0.1
2018-Feb-12 03:58N 29°37' W 095°01'0 0.0
2018-Feb-12 03:31N 29°37' W 095°01'0 0.0
2018-Feb-12 02:58N 29°37' W 095°01'0 0.0
2018-Feb-12 02:31N 29°37' W 095°01'0 0.3
2018-Feb-12 02:00N 29°37' W 095°01'2 4.8
2018-Feb-12 01:30N 29°37' W 094°59'1 1.3
2018-Feb-12 01:00N 29°37' W 094°58'2 4.5
2018-Feb-12 00:28N 29°39' W 094°58'3 5.5
2018-Feb-11 23:59N 29°42' W 094°60'  

Dump ship's entire track history